sensor_id;sensor_type;location;lat;lon;timestamp;temperature;humidity
9975;DHT22;5028;50.974;4.968;2023-08-08T00:00:11;13.60;99.90
9975;DHT22;5028;50.974;4.968;2023-08-08T00:02:41;13.50;99.90
9975;DHT22;5028;50.974;4.968;2023-08-08T00:05:10;13.60;99.90
9975;DHT22;5028;50.974;4.968;2023-08-08T00:07:38;13.50;99.90
9975;DHT22;5028;50.974;4.968;2023-08-08T00:10:10;13.50;99.90
9975;DHT22;5028;50.974;4.968;2023-08-08T00:12:39;13.50;99.90
9975;DHT22;5028;50.974;4.968;2023-08-08T00:15:08;13.50;99.90
9975;DHT22;5028;50.974;4.968;2023-08-08T00:17:37;13.50;99.90
9975;DHT22;5028;50.974;4.968;2023-08-08T00:20:07;13.50;99.90
9975;DHT22;5028;50.974;4.968;2023-08-08T00:22:36;13.40;99.90
9975;DHT22;5028;50.974;4.968;2023-08-08T00:25:05;13.40;99.90
9975;DHT22;5028;50.974;4.968;2023-08-08T00:27:35;13.40;99.90
9975;DHT22;5028;50.974;4.968;2023-08-08T00:30:10;13.40;99.90
9975;DHT22;5028;50.974;4.968;2023-08-08T00:32:39;13.40;99.90
9975;DHT22;5028;50.974;4.968;2023-08-08T00:35:09;13.30;99.90
9975;DHT22;5028;50.974;4.968;2023-08-08T00:37:38;13.30;99.90
9975;DHT22;5028;50.974;4.968;2023-08-08T00:40:08;13.30;99.90
9975;DHT22;5028;50.974;4.968;2023-08-08T00:42:38;13.30;99.90
9975;DHT22;5028;50.974;4.968;2023-08-08T00:45:08;13.20;99.90
9975;DHT22;5028;50.974;4.968;2023-08-08T00:47:37;13.20;99.90
9975;DHT22;5028;50.974;4.968;2023-08-08T00:50:06;13.20;99.90
9975;DHT22;5028;50.974;4.968;2023-08-08T00:52:35;13.10;99.90
9975;DHT22;5028;50.974;4.968;2023-08-08T00:55:07;13.10;99.90
9975;DHT22;5028;50.974;4.968;2023-08-08T00:57:37;13.10;99.90
9975;DHT22;5028;50.974;4.968;2023-08-08T01:00:17;13.10;99.90
9975;DHT22;5028;50.974;4.968;2023-08-08T01:02:46;13.00;99.90
9975;DHT22;5028;50.974;4.968;2023-08-08T01:05:16;13.00;99.90
9975;DHT22;5028;50.974;4.968;2023-08-08T01:07:50;13.00;99.90
9975;DHT22;5028;50.974;4.968;2023-08-08T01:10:24;12.90;99.90
9975;DHT22;5028;50.974;4.968;2023-08-08T01:12:58;12.90;99.90
9975;DHT22;5028;50.974;4.968;2023-08-08T01:15:29;12.90;99.90
9975;DHT22;5028;50.974;4.968;2023-08-08T01:18:04;12.90;99.90
9975;DHT22;5028;50.974;4.968;2023-08-08T01:20:35;12.90;99.90
9975;DHT22;5028;50.974;4.968;2023-08-08T01:23:14;12.90;99.90
9975;DHT22;5028;50.974;4.968;2023-08-08T01:25:46;12.80;99.90
9975;DHT22;5028;50.974;4.968;2023-08-08T01:28:15;12.80;99.90
9975;DHT22;5028;50.974;4.968;2023-08-08T01:30:44;12.80;99.90
9975;DHT22;5028;50.974;4.968;2023-08-08T01:33:12;12.80;99.90
9975;DHT22;5028;50.974;4.968;2023-08-08T01:35:45;12.80;99.90
9975;DHT22;5028;50.974;4.968;2023-08-08T01:38:19;12.80;99.90
9975;DHT22;5028;50.974;4.968;2023-08-08T01:40:55;12.80;99.90
9975;DHT22;5028;50.974;4.968;2023-08-08T01:43:25;12.80;99.90
9975;DHT22;5028;50.974;4.968;2023-08-08T01:45:54;12.80;99.90
9975;DHT22;5028;50.974;4.968;2023-08-08T01:48:23;12.80;99.90
9975;DHT22;5028;50.974;4.968;2023-08-08T01:50:52;12.70;99.90
9975;DHT22;5028;50.974;4.968;2023-08-08T01:53:21;12.70;99.90
9975;DHT22;5028;50.974;4.968;2023-08-08T01:55:50;12.70;99.90
9975;DHT22;5028;50.974;4.968;2023-08-08T01:58:21;12.70;99.90
9975;DHT22;5028;50.974;4.968;2023-08-08T02:00:50;12.70;99.90
9975;DHT22;5028;50.974;4.968;2023-08-08T02:03:19;12.70;99.90
9975;DHT22;5028;50.974;4.968;2023-08-08T02:05:48;12.70;99.90
9975;DHT22;5028;50.974;4.968;2023-08-08T02:08:16;12.70;99.90
9975;DHT22;5028;50.974;4.968;2023-08-08T02:10:46;12.70;99.90
9975;DHT22;5028;50.974;4.968;2023-08-08T02:13:14;12.70;99.90
9975;DHT22;5028;50.974;4.968;2023-08-08T02:15:44;12.70;99.90
9975;DHT22;5028;50.974;4.968;2023-08-08T02:18:14;12.70;99.90
9975;DHT22;5028;50.974;4.968;2023-08-08T02:20:42;12.70;99.90
9975;DHT22;5028;50.974;4.968;2023-08-08T02:23:12;12.70;99.90
9975;DHT22;5028;50.974;4.968;2023-08-08T02:25:43;12.70;99.90
9975;DHT22;5028;50.974;4.968;2023-08-08T02:28:12;12.70;99.90
9975;DHT22;5028;50.974;4.968;2023-08-08T02:30:40;12.70;99.90
9975;DHT22;5028;50.974;4.968;2023-08-08T02:33:11;12.70;99.90
9975;DHT22;5028;50.974;4.968;2023-08-08T02:35:40;12.70;99.90
9975;DHT22;5028;50.974;4.968;2023-08-08T02:38:09;12.70;99.90
9975;DHT22;5028;50.974;4.968;2023-08-08T02:40:38;12.70;99.90
9975;DHT22;5028;50.974;4.968;2023-08-08T02:43:07;12.70;99.90
9975;DHT22;5028;50.974;4.968;2023-08-08T02:45:37;12.70;99.90
9975;DHT22;5028;50.974;4.968;2023-08-08T02:48:07;12.70;99.90
9975;DHT22;5028;50.974;4.968;2023-08-08T02:50:38;12.70;99.90
9975;DHT22;5028;50.974;4.968;2023-08-08T02:53:06;12.70;99.90
9975;DHT22;5028;50.974;4.968;2023-08-08T02:55:36;12.70;99.90
9975;DHT22;5028;50.974;4.968;2023-08-08T02:58:05;12.70;99.90
9975;DHT22;5028;50.974;4.968;2023-08-08T03:00:33;12.70;99.90
9975;DHT22;5028;50.974;4.968;2023-08-08T03:03:02;12.70;99.90
9975;DHT22;5028;50.974;4.968;2023-08-08T03:05:31;12.70;99.90
9975;DHT22;5028;50.974;4.968;2023-08-08T03:08:02;12.70;99.90
9975;DHT22;5028;50.974;4.968;2023-08-08T03:10:31;12.70;99.90
9975;DHT22;5028;50.974;4.968;2023-08-08T03:13:00;12.70;99.90
9975;DHT22;5028;50.974;4.968;2023-08-08T03:15:29;12.70;99.90
9975;DHT22;5028;50.974;4.968;2023-08-08T03:17:58;12.70;99.90
9975;DHT22;5028;50.974;4.968;2023-08-08T03:20:27;12.70;99.90
9975;DHT22;5028;50.974;4.968;2023-08-08T03:22:56;12.60;99.90
9975;DHT22;5028;50.974;4.968;2023-08-08T03:25:26;12.60;99.90
9975;DHT22;5028;50.974;4.968;2023-08-08T03:27:55;12.60;99.90
9975;DHT22;5028;50.974;4.968;2023-08-08T03:30:24;12.60;99.90
9975;DHT22;5028;50.974;4.968;2023-08-08T03:32:53;12.60;99.90
9975;DHT22;5028;50.974;4.968;2023-08-08T03:35:22;12.70;99.90
9975;DHT22;5028;50.974;4.968;2023-08-08T03:37:52;12.70;99.90
9975;DHT22;5028;50.974;4.968;2023-08-08T03:40:20;12.70;99.90
9975;DHT22;5028;50.974;4.968;2023-08-08T03:42:50;12.80;99.90
9975;DHT22;5028;50.974;4.968;2023-08-08T03:45:19;12.80;99.90
9975;DHT22;5028;50.974;4.968;2023-08-08T03:47:48;12.80;99.90
9975;DHT22;5028;50.974;4.968;2023-08-08T03:50:17;12.80;99.90
9975;DHT22;5028;50.974;4.968;2023-08-08T03:52:46;12.80;99.90
9975;DHT22;5028;50.974;4.968;2023-08-08T03:55:15;12.80;99.90
9975;DHT22;5028;50.974;4.968;2023-08-08T03:57:43;12.70;99.90
9975;DHT22;5028;50.974;4.968;2023-08-08T04:00:14;12.70;99.90
9975;DHT22;5028;50.974;4.968;2023-08-08T04:02:44;12.70;99.90
9975;DHT22;5028;50.974;4.968;2023-08-08T04:05:13;12.70;99.90
9975;DHT22;5028;50.974;4.968;2023-08-08T04:07:41;12.70;99.90
9975;DHT22;5028;50.974;4.968;2023-08-08T04:10:11;12.70;99.90
9975;DHT22;5028;50.974;4.968;2023-08-08T04:12:40;12.70;99.90
9975;DHT22;5028;50.974;4.968;2023-08-08T04:15:09;12.70;99.90
9975;DHT22;5028;50.974;4.968;2023-08-08T04:17:39;12.60;99.90
9975;DHT22;5028;50.974;4.968;2023-08-08T04:20:09;12.60;99.90
9975;DHT22;5028;50.974;4.968;2023-08-08T04:22:38;12.60;99.90
9975;DHT22;5028;50.974;4.968;2023-08-08T04:25:08;12.60;99.90
9975;DHT22;5028;50.974;4.968;2023-08-08T04:27:37;12.60;99.90
9975;DHT22;5028;50.974;4.968;2023-08-08T04:30:07;12.60;99.90
9975;DHT22;5028;50.974;4.968;2023-08-08T04:32:36;12.60;99.90
9975;DHT22;5028;50.974;4.968;2023-08-08T04:35:07;12.60;99.90
9975;DHT22;5028;50.974;4.968;2023-08-08T04:37:35;12.60;99.90
9975;DHT22;5028;50.974;4.968;2023-08-08T04:40:06;12.60;99.90
9975;DHT22;5028;50.974;4.968;2023-08-08T04:42:36;12.50;99.90
9975;DHT22;5028;50.974;4.968;2023-08-08T04:45:07;12.60;99.90
9975;DHT22;5028;50.974;4.968;2023-08-08T04:47:37;12.60;99.90
9975;DHT22;5028;50.974;4.968;2023-08-08T04:50:09;12.60;99.90
9975;DHT22;5028;50.974;4.968;2023-08-08T04:52:38;12.60;99.90
9975;DHT22;5028;50.974;4.968;2023-08-08T04:55:07;12.60;99.90
9975;DHT22;5028;50.974;4.968;2023-08-08T04:57:36;12.60;99.90
9975;DHT22;5028;50.974;4.968;2023-08-08T05:00:05;12.60;99.90
9975;DHT22;5028;50.974;4.968;2023-08-08T05:02:35;12.60;99.90
9975;DHT22;5028;50.974;4.968;2023-08-08T05:05:08;12.70;99.90
9975;DHT22;5028;50.974;4.968;2023-08-08T05:07:37;12.70;99.90
9975;DHT22;5028;50.974;4.968;2023-08-08T05:10:06;12.70;99.90
9975;DHT22;5028;50.974;4.968;2023-08-08T05:12:35;12.70;99.90
9975;DHT22;5028;50.974;4.968;2023-08-08T05:15:05;12.70;99.90
9975;DHT22;5028;50.974;4.968;2023-08-08T05:17:34;12.80;99.90
9975;DHT22;5028;50.974;4.968;2023-08-08T05:20:04;12.80;99.90
9975;DHT22;5028;50.974;4.968;2023-08-08T05:22:35;12.80;99.90
9975;DHT22;5028;50.974;4.968;2023-08-08T05:25:05;12.90;99.90
9975;DHT22;5028;50.974;4.968;2023-08-08T05:27:34;12.90;99.90
9975;DHT22;5028;50.974;4.968;2023-08-08T05:30:04;12.90;99.90
9975;DHT22;5028;50.974;4.968;2023-08-08T05:32:33;13.00;99.90
9975;DHT22;5028;50.974;4.968;2023-08-08T05:35:02;13.10;99.90
9975;DHT22;5028;50.974;4.968;2023-08-08T05:37:32;13.10;99.90
9975;DHT22;5028;50.974;4.968;2023-08-08T05:40:03;13.10;99.90
9975;DHT22;5028;50.974;4.968;2023-08-08T05:42:34;13.20;99.90
9975;DHT22;5028;50.974;4.968;2023-08-08T05:45:03;13.30;99.90
9975;DHT22;5028;50.974;4.968;2023-08-08T05:47:33;13.40;99.90
9975;DHT22;5028;50.974;4.968;2023-08-08T05:50:02;13.40;99.90
9975;DHT22;5028;50.974;4.968;2023-08-08T05:52:31;13.50;99.90
9975;DHT22;5028;50.974;4.968;2023-08-08T05:55:03;13.60;99.90
9975;DHT22;5028;50.974;4.968;2023-08-08T05:57:32;13.70;99.90
9975;DHT22;5028;50.974;4.968;2023-08-08T06:00:00;13.70;99.90
9975;DHT22;5028;50.974;4.968;2023-08-08T06:02:30;13.80;99.90
9975;DHT22;5028;50.974;4.968;2023-08-08T06:04:59;13.90;99.90
9975;DHT22;5028;50.974;4.968;2023-08-08T06:07:28;14.00;99.90
9975;DHT22;5028;50.974;4.968;2023-08-08T06:09:56;14.10;99.90
9975;DHT22;5028;50.974;4.968;2023-08-08T06:12:27;14.20;99.90
9975;DHT22;5028;50.974;4.968;2023-08-08T06:14:55;14.30;99.90
9975;DHT22;5028;50.974;4.968;2023-08-08T06:17:24;14.40;99.90
9975;DHT22;5028;50.974;4.968;2023-08-08T06:19:53;14.50;99.90
9975;DHT22;5028;50.974;4.968;2023-08-08T06:22:24;14.50;99.90
9975;DHT22;5028;50.974;4.968;2023-08-08T06:24:53;14.70;99.90
9975;DHT22;5028;50.974;4.968;2023-08-08T06:27:21;14.80;99.90
9975;DHT22;5028;50.974;4.968;2023-08-08T06:29:52;15.00;99.90
9975;DHT22;5028;50.974;4.968;2023-08-08T06:32:21;15.20;99.90
9975;DHT22;5028;50.974;4.968;2023-08-08T06:34:50;15.30;99.90
9975;DHT22;5028;50.974;4.968;2023-08-08T06:37:19;15.30;99.90
9975;DHT22;5028;50.974;4.968;2023-08-08T06:39:48;15.30;99.90
9975;DHT22;5028;50.974;4.968;2023-08-08T06:42:16;15.40;99.90
9975;DHT22;5028;50.974;4.968;2023-08-08T06:44:45;15.30;99.90
9975;DHT22;5028;50.974;4.968;2023-08-08T06:47:15;15.30;99.90
9975;DHT22;5028;50.974;4.968;2023-08-08T06:49:45;15.30;99.90
9975;DHT22;5028;50.974;4.968;2023-08-08T06:52:15;15.40;99.90
9975;DHT22;5028;50.974;4.968;2023-08-08T06:54:46;15.40;99.90
9975;DHT22;5028;50.974;4.968;2023-08-08T06:57:15;15.40;99.90
9975;DHT22;5028;50.974;4.968;2023-08-08T06:59:43;15.50;99.90
9975;DHT22;5028;50.974;4.968;2023-08-08T07:02:21;15.50;99.90
9975;DHT22;5028;50.974;4.968;2023-08-08T07:04:50;15.60;99.90
9975;DHT22;5028;50.974;4.968;2023-08-08T07:07:19;15.70;99.90
9975;DHT22;5028;50.974;4.968;2023-08-08T07:09:48;15.70;99.90
9975;DHT22;5028;50.974;4.968;2023-08-08T07:12:17;15.70;99.90
9975;DHT22;5028;50.974;4.968;2023-08-08T07:14:46;15.70;99.90
9975;DHT22;5028;50.974;4.968;2023-08-08T07:17:15;15.80;99.90
9975;DHT22;5028;50.974;4.968;2023-08-08T07:19:46;15.80;99.90
9975;DHT22;5028;50.974;4.968;2023-08-08T07:22:14;15.90;99.90
9975;DHT22;5028;50.974;4.968;2023-08-08T07:24:44;16.00;99.90
9975;DHT22;5028;50.974;4.968;2023-08-08T07:27:13;16.10;99.90
9975;DHT22;5028;50.974;4.968;2023-08-08T07:29:42;16.20;99.90
9975;DHT22;5028;50.974;4.968;2023-08-08T07:32:11;16.30;99.90
9975;DHT22;5028;50.974;4.968;2023-08-08T07:34:40;16.30;99.90
9975;DHT22;5028;50.974;4.968;2023-08-08T07:37:11;16.40;99.90
9975;DHT22;5028;50.974;4.968;2023-08-08T07:39:40;16.50;99.90
9975;DHT22;5028;50.974;4.968;2023-08-08T07:42:08;16.70;99.90
9975;DHT22;5028;50.974;4.968;2023-08-08T07:44:37;16.60;99.90
9975;DHT22;5028;50.974;4.968;2023-08-08T07:47:06;16.70;99.90
9975;DHT22;5028;50.974;4.968;2023-08-08T07:49:39;16.80;99.90
9975;DHT22;5028;50.974;4.968;2023-08-08T07:52:08;17.00;99.90
9975;DHT22;5028;50.974;4.968;2023-08-08T07:54:38;17.20;99.90
9975;DHT22;5028;50.974;4.968;2023-08-08T07:57:07;17.20;99.90
9975;DHT22;5028;50.974;4.968;2023-08-08T07:59:38;17.20;99.90
9975;DHT22;5028;50.974;4.968;2023-08-08T08:02:07;17.40;99.90
9975;DHT22;5028;50.974;4.968;2023-08-08T08:04:36;17.40;99.90
9975;DHT22;5028;50.974;4.968;2023-08-08T08:07:05;17.30;99.90
9975;DHT22;5028;50.974;4.968;2023-08-08T08:09:36;17.40;99.90
9975;DHT22;5028;50.974;4.968;2023-08-08T08:12:07;17.50;99.90
9975;DHT22;5028;50.974;4.968;2023-08-08T08:14:36;17.60;99.90
9975;DHT22;5028;50.974;4.968;2023-08-08T08:17:08;17.70;99.90
9975;DHT22;5028;50.974;4.968;2023-08-08T08:19:37;17.70;99.90
9975;DHT22;5028;50.974;4.968;2023-08-08T08:22:05;17.80;99.90
9975;DHT22;5028;50.974;4.968;2023-08-08T08:24:34;17.80;99.90
9975;DHT22;5028;50.974;4.968;2023-08-08T08:27:03;17.80;99.90
9975;DHT22;5028;50.974;4.968;2023-08-08T08:29:34;17.80;99.90
9975;DHT22;5028;50.974;4.968;2023-08-08T08:32:04;17.80;99.90
9975;DHT22;5028;50.974;4.968;2023-08-08T08:34:33;17.90;99.90
9975;DHT22;5028;50.974;4.968;2023-08-08T08:37:02;17.90;99.90
9975;DHT22;5028;50.974;4.968;2023-08-08T08:39:31;17.90;99.90
9975;DHT22;5028;50.974;4.968;2023-08-08T08:42:02;17.90;99.90
9975;DHT22;5028;50.974;4.968;2023-08-08T08:44:34;17.90;99.90
9975;DHT22;5028;50.974;4.968;2023-08-08T08:47:04;18.00;99.90
9975;DHT22;5028;50.974;4.968;2023-08-08T08:49:39;18.00;99.90
9975;DHT22;5028;50.974;4.968;2023-08-08T08:52:08;18.10;99.90
9975;DHT22;5028;50.974;4.968;2023-08-08T08:54:37;18.10;99.90
9975;DHT22;5028;50.974;4.968;2023-08-08T08:57:07;18.20;99.90
9975;DHT22;5028;50.974;4.968;2023-08-08T08:59:38;18.30;99.90
9975;DHT22;5028;50.974;4.968;2023-08-08T09:02:08;18.30;99.90
9975;DHT22;5028;50.974;4.968;2023-08-08T09:04:37;18.40;99.90
9975;DHT22;5028;50.974;4.968;2023-08-08T09:07:07;18.40;99.90
9975;DHT22;5028;50.974;4.968;2023-08-08T09:09:38;18.50;99.90
9975;DHT22;5028;50.974;4.968;2023-08-08T09:12:07;18.50;99.90
9975;DHT22;5028;50.974;4.968;2023-08-08T09:14:41;18.50;99.90
9975;DHT22;5028;50.974;4.968;2023-08-08T09:17:11;18.50;99.90
9975;DHT22;5028;50.974;4.968;2023-08-08T09:19:42;18.50;99.90
9975;DHT22;5028;50.974;4.968;2023-08-08T09:22:12;18.50;99.90
9975;DHT22;5028;50.974;4.968;2023-08-08T09:24:42;18.50;99.90
9975;DHT22;5028;50.974;4.968;2023-08-08T09:27:13;18.60;99.90
9975;DHT22;5028;50.974;4.968;2023-08-08T09:29:44;18.80;99.90
9975;DHT22;5028;50.974;4.968;2023-08-08T09:32:13;18.90;99.90
9975;DHT22;5028;50.974;4.968;2023-08-08T09:34:46;18.90;99.90
9975;DHT22;5028;50.974;4.968;2023-08-08T09:37:15;19.00;99.90
9975;DHT22;5028;50.974;4.968;2023-08-08T09:39:45;19.10;99.90
9975;DHT22;5028;50.974;4.968;2023-08-08T09:42:14;19.20;99.90
9975;DHT22;5028;50.974;4.968;2023-08-08T09:44:46;19.10;99.90
9975;DHT22;5028;50.974;4.968;2023-08-08T09:47:16;19.10;99.90
9975;DHT22;5028;50.974;4.968;2023-08-08T09:49:48;19.10;99.90
9975;DHT22;5028;50.974;4.968;2023-08-08T09:52:17;19.10;99.90
9975;DHT22;5028;50.974;4.968;2023-08-08T09:54:48;19.20;99.90
9975;DHT22;5028;50.974;4.968;2023-08-08T09:57:17;19.20;99.90
9975;DHT22;5028;50.974;4.968;2023-08-08T09:59:49;19.40;99.90
9975;DHT22;5028;50.974;4.968;2023-08-08T10:02:19;19.60;99.90
9975;DHT22;5028;50.974;4.968;2023-08-08T10:04:48;19.70;99.90
9975;DHT22;5028;50.974;4.968;2023-08-08T10:07:17;19.70;99.90
9975;DHT22;5028;50.974;4.968;2023-08-08T10:09:46;19.70;99.90
9975;DHT22;5028;50.974;4.968;2023-08-08T10:12:15;19.90;99.90
9975;DHT22;5028;50.974;4.968;2023-08-08T10:14:45;20.00;99.90
9975;DHT22;5028;50.974;4.968;2023-08-08T10:17:15;19.90;99.90
9975;DHT22;5028;50.974;4.968;2023-08-08T10:19:54;19.90;99.90
9975;DHT22;5028;50.974;4.968;2023-08-08T10:22:25;19.80;99.90
9975;DHT22;5028;50.974;4.968;2023-08-08T10:24:54;19.70;99.90
9975;DHT22;5028;50.974;4.968;2023-08-08T10:27:32;19.60;99.90
9975;DHT22;5028;50.974;4.968;2023-08-08T10:30:05;19.40;99.90
9975;DHT22;5028;50.974;4.968;2023-08-08T10:32:41;19.10;99.90
9975;DHT22;5028;50.974;4.968;2023-08-08T10:35:13;18.90;99.90
9975;DHT22;5028;50.974;4.968;2023-08-08T10:37:52;18.90;99.90
9975;DHT22;5028;50.974;4.968;2023-08-08T10:40:21;18.90;99.90
9975;DHT22;5028;50.974;4.968;2023-08-08T10:42:52;18.80;99.90
9975;DHT22;5028;50.974;4.968;2023-08-08T10:45:21;18.70;99.90
9975;DHT22;5028;50.974;4.968;2023-08-08T10:48:07;18.70;99.90
9975;DHT22;5028;50.974;4.968;2023-08-08T10:50:39;18.60;99.90
9975;DHT22;5028;50.974;4.968;2023-08-08T10:53:11;18.50;99.90
9975;DHT22;5028;50.974;4.968;2023-08-08T10:55:40;18.50;99.90
9975;DHT22;5028;50.974;4.968;2023-08-08T10:58:10;18.60;99.90
9975;DHT22;5028;50.974;4.968;2023-08-08T11:00:40;18.50;99.90
9975;DHT22;5028;50.974;4.968;2023-08-08T11:03:11;18.50;99.90
9975;DHT22;5028;50.974;4.968;2023-08-08T11:05:40;18.50;99.90
9975;DHT22;5028;50.974;4.968;2023-08-08T11:08:12;18.50;99.90
9975;DHT22;5028;50.974;4.968;2023-08-08T11:10:41;18.50;99.90
9975;DHT22;5028;50.974;4.968;2023-08-08T11:13:10;18.40;99.90
9975;DHT22;5028;50.974;4.968;2023-08-08T11:15:39;18.30;99.90
9975;DHT22;5028;50.974;4.968;2023-08-08T11:18:17;18.20;99.90
9975;DHT22;5028;50.974;4.968;2023-08-08T11:20:47;18.10;99.90
9975;DHT22;5028;50.974;4.968;2023-08-08T11:23:16;18.00;99.90
9975;DHT22;5028;50.974;4.968;2023-08-08T11:25:48;17.90;99.90
9975;DHT22;5028;50.974;4.968;2023-08-08T11:28:37;17.90;99.90
9975;DHT22;5028;50.974;4.968;2023-08-08T11:31:07;17.90;99.90
9975;DHT22;5028;50.974;4.968;2023-08-08T11:33:38;18.00;99.90
9975;DHT22;5028;50.974;4.968;2023-08-08T11:36:07;18.20;99.90
9975;DHT22;5028;50.974;4.968;2023-08-08T11:38:36;18.60;99.90
9975;DHT22;5028;50.974;4.968;2023-08-08T11:41:06;19.00;99.90
9975;DHT22;5028;50.974;4.968;2023-08-08T11:43:35;19.60;99.90
9975;DHT22;5028;50.974;4.968;2023-08-08T11:46:08;20.10;99.90
9975;DHT22;5028;50.974;4.968;2023-08-08T11:48:39;20.00;99.90
9975;DHT22;5028;50.974;4.968;2023-08-08T11:51:09;20.00;99.90
9975;DHT22;5028;50.974;4.968;2023-08-08T11:53:48;19.90;99.90
9975;DHT22;5028;50.974;4.968;2023-08-08T11:56:18;19.80;99.90
9975;DHT22;5028;50.974;4.968;2023-08-08T11:58:49;19.80;99.90
9975;DHT22;5028;50.974;4.968;2023-08-08T12:01:20;19.70;99.90
9975;DHT22;5028;50.974;4.968;2023-08-08T12:03:50;19.70;99.90
9975;DHT22;5028;50.974;4.968;2023-08-08T12:06:20;19.70;99.90
9975;DHT22;5028;50.974;4.968;2023-08-08T12:08:49;19.60;99.90
9975;DHT22;5028;50.974;4.968;2023-08-08T12:11:19;19.60;99.90
9975;DHT22;5028;50.974;4.968;2023-08-08T12:13:51;19.60;99.90
9975;DHT22;5028;50.974;4.968;2023-08-08T12:16:28;19.40;99.90
9975;DHT22;5028;50.974;4.968;2023-08-08T12:19:02;19.40;99.90
9975;DHT22;5028;50.974;4.968;2023-08-08T12:21:31;19.50;99.90
9975;DHT22;5028;50.974;4.968;2023-08-08T12:24:00;19.50;99.90
9975;DHT22;5028;50.974;4.968;2023-08-08T12:26:30;19.50;99.90
9975;DHT22;5028;50.974;4.968;2023-08-08T12:29:00;19.50;99.90
9975;DHT22;5028;50.974;4.968;2023-08-08T12:31:29;19.50;99.90
9975;DHT22;5028;50.974;4.968;2023-08-08T12:34:03;19.40;99.90
9975;DHT22;5028;50.974;4.968;2023-08-08T12:36:31;19.50;99.90
9975;DHT22;5028;50.974;4.968;2023-08-08T12:39:01;19.80;99.90
9975;DHT22;5028;50.974;4.968;2023-08-08T12:41:30;20.00;99.90
9975;DHT22;5028;50.974;4.968;2023-08-08T12:43:59;20.10;99.90
9975;DHT22;5028;50.974;4.968;2023-08-08T12:46:39;20.10;99.90
9975;DHT22;5028;50.974;4.968;2023-08-08T12:49:09;19.90;99.90
9975;DHT22;5028;50.974;4.968;2023-08-08T12:51:38;19.80;99.90
9975;DHT22;5028;50.974;4.968;2023-08-08T12:54:07;19.70;99.90
9975;DHT22;5028;50.974;4.968;2023-08-08T12:56:36;19.80;99.90
9975;DHT22;5028;50.974;4.968;2023-08-08T12:59:05;19.90;99.90
9975;DHT22;5028;50.974;4.968;2023-08-08T13:01:33;20.30;99.90
9975;DHT22;5028;50.974;4.968;2023-08-08T13:04:03;20.40;99.90
9975;DHT22;5028;50.974;4.968;2023-08-08T13:06:47;20.60;99.90
9975;DHT22;5028;50.974;4.968;2023-08-08T13:09:16;20.70;99.90
9975;DHT22;5028;50.974;4.968;2023-08-08T13:11:45;20.60;99.90
9975;DHT22;5028;50.974;4.968;2023-08-08T13:14:14;20.50;99.90
9975;DHT22;5028;50.974;4.968;2023-08-08T13:16:43;20.50;99.90
9975;DHT22;5028;50.974;4.968;2023-08-08T13:19:13;20.50;99.90
9975;DHT22;5028;50.974;4.968;2023-08-08T13:21:43;20.60;99.90
9975;DHT22;5028;50.974;4.968;2023-08-08T13:24:14;20.60;99.90
9975;DHT22;5028;50.974;4.968;2023-08-08T13:26:42;20.80;99.90
9975;DHT22;5028;50.974;4.968;2023-08-08T13:29:12;20.90;99.90
9975;DHT22;5028;50.974;4.968;2023-08-08T13:31:41;21.30;99.90
9975;DHT22;5028;50.974;4.968;2023-08-08T13:34:10;21.40;99.90
9975;DHT22;5028;50.974;4.968;2023-08-08T13:36:39;21.40;99.90
9975;DHT22;5028;50.974;4.968;2023-08-08T13:39:08;21.40;99.90
9975;DHT22;5028;50.974;4.968;2023-08-08T13:41:40;21.30;99.90
9975;DHT22;5028;50.974;4.968;2023-08-08T13:44:09;21.20;99.90
9975;DHT22;5028;50.974;4.968;2023-08-08T13:46:38;21.20;99.90
9975;DHT22;5028;50.974;4.968;2023-08-08T13:49:07;21.10;99.90
9975;DHT22;5028;50.974;4.968;2023-08-08T13:51:35;21.10;99.90
9975;DHT22;5028;50.974;4.968;2023-08-08T13:54:04;20.90;99.90
9975;DHT22;5028;50.974;4.968;2023-08-08T13:56:34;21.00;99.90
9975;DHT22;5028;50.974;4.968;2023-08-08T13:59:04;20.90;99.90
9975;DHT22;5028;50.974;4.968;2023-08-08T14:01:34;20.70;99.90
9975;DHT22;5028;50.974;4.968;2023-08-08T14:04:03;20.60;99.90
9975;DHT22;5028;50.974;4.968;2023-08-08T14:06:33;20.80;99.90
9975;DHT22;5028;50.974;4.968;2023-08-08T14:09:02;20.70;99.90
9975;DHT22;5028;50.974;4.968;2023-08-08T14:11:31;20.70;99.90
9975;DHT22;5028;50.974;4.968;2023-08-08T14:14:00;21.00;99.90
9975;DHT22;5028;50.974;4.968;2023-08-08T14:16:29;21.20;99.90
9975;DHT22;5028;50.974;4.968;2023-08-08T14:19:02;21.30;99.90
9975;DHT22;5028;50.974;4.968;2023-08-08T14:21:31;21.30;99.90
9975;DHT22;5028;50.974;4.968;2023-08-08T14:24:00;21.30;99.90
9975;DHT22;5028;50.974;4.968;2023-08-08T14:26:30;21.40;99.90
9975;DHT22;5028;50.974;4.968;2023-08-08T14:29:00;21.60;99.90
9975;DHT22;5028;50.974;4.968;2023-08-08T14:31:30;21.90;99.90
9975;DHT22;5028;50.974;4.968;2023-08-08T14:34:14;21.90;99.90
9975;DHT22;5028;50.974;4.968;2023-08-08T14:36:43;21.90;99.90
9975;DHT22;5028;50.974;4.968;2023-08-08T14:39:12;21.90;99.90
9975;DHT22;5028;50.974;4.968;2023-08-08T14:41:40;21.70;99.90
9975;DHT22;5028;50.974;4.968;2023-08-08T14:44:09;21.60;99.90
9975;DHT22;5028;50.974;4.968;2023-08-08T14:46:40;21.30;99.90
9975;DHT22;5028;50.974;4.968;2023-08-08T14:49:09;21.10;99.90
9975;DHT22;5028;50.974;4.968;2023-08-08T14:51:37;20.90;99.90
9975;DHT22;5028;50.974;4.968;2023-08-08T14:54:06;20.80;99.90
9975;DHT22;5028;50.974;4.968;2023-08-08T14:56:35;20.80;99.90
9975;DHT22;5028;50.974;4.968;2023-08-08T14:59:04;20.80;99.90
9975;DHT22;5028;50.974;4.968;2023-08-08T15:01:33;20.90;99.90
9975;DHT22;5028;50.974;4.968;2023-08-08T15:04:04;21.10;99.90
9975;DHT22;5028;50.974;4.968;2023-08-08T15:06:33;21.10;99.90
9975;DHT22;5028;50.974;4.968;2023-08-08T15:09:02;20.90;99.90
9975;DHT22;5028;50.974;4.968;2023-08-08T15:11:31;20.90;99.90
9975;DHT22;5028;50.974;4.968;2023-08-08T15:14:00;20.80;99.90
9975;DHT22;5028;50.974;4.968;2023-08-08T15:16:30;20.60;99.90
9975;DHT22;5028;50.974;4.968;2023-08-08T15:19:03;20.40;99.90
9975;DHT22;5028;50.974;4.968;2023-08-08T15:21:34;20.20;99.90
9975;DHT22;5028;50.974;4.968;2023-08-08T15:24:03;20.20;99.90
9975;DHT22;5028;50.974;4.968;2023-08-08T15:26:32;20.30;99.90
9975;DHT22;5028;50.974;4.968;2023-08-08T15:29:01;20.30;99.90
9975;DHT22;5028;50.974;4.968;2023-08-08T15:31:30;20.30;99.90
9975;DHT22;5028;50.974;4.968;2023-08-08T15:34:00;20.20;99.90
9975;DHT22;5028;50.974;4.968;2023-08-08T15:36:30;20.10;99.90
9975;DHT22;5028;50.974;4.968;2023-08-08T15:39:00;20.00;99.90
9975;DHT22;5028;50.974;4.968;2023-08-08T15:41:30;20.00;99.90
9975;DHT22;5028;50.974;4.968;2023-08-08T15:43:59;19.90;99.90
9975;DHT22;5028;50.974;4.968;2023-08-08T15:46:27;19.80;99.90
9975;DHT22;5028;50.974;4.968;2023-08-08T15:48:56;19.70;99.90
9975;DHT22;5028;50.974;4.968;2023-08-08T15:51:25;19.60;99.90
9975;DHT22;5028;50.974;4.968;2023-08-08T15:53:58;19.50;99.90
9975;DHT22;5028;50.974;4.968;2023-08-08T15:56:28;19.50;99.90
9975;DHT22;5028;50.974;4.968;2023-08-08T15:58:58;19.50;99.90
9975;DHT22;5028;50.974;4.968;2023-08-08T16:01:26;19.40;99.90
9975;DHT22;5028;50.974;4.968;2023-08-08T16:03:59;19.40;99.90
9975;DHT22;5028;50.974;4.968;2023-08-08T16:06:35;19.40;99.90
9975;DHT22;5028;50.974;4.968;2023-08-08T16:09:06;19.30;99.90
9975;DHT22;5028;50.974;4.968;2023-08-08T16:11:37;19.30;99.90
9975;DHT22;5028;50.974;4.968;2023-08-08T16:14:07;19.40;99.90
9975;DHT22;5028;50.974;4.968;2023-08-08T16:16:35;19.30;99.90
9975;DHT22;5028;50.974;4.968;2023-08-08T16:19:04;19.40;99.90